Time;durP1;ratioP1;P1;durP2;ratioP2;P2;SDS_P1;SDS_P2;PMS_P1;PMS_P2;Temp;Humidity;BMP_temperature;BMP_pressure;BME280_temperature;BME280_humidity;BME280_pressure;Samples;Min_cycle;Max_cycle;Signal;HPM_P1;HPM_P2
2023/05/13 00:00:14;;;;;;;3.17;2.23;;;;;;;12.06;100.00;98084.09;5116018;28;20584;-78
2023/05/13 00:02:40;;;;;;;2.63;2.43;;;;;;;11.99;100.00;98072.72;5116104;28;20204;-78
2023/05/13 00:05:07;;;;;;;2.40;2.30;;;;;;;12.01;100.00;98075.97;5115231;28;20211;-78
2023/05/13 00:07:34;;;;;;;3.10;2.80;;;;;;;12.00;100.00;98071.69;5116429;28;20207;-78
2023/05/13 00:10:00;;;;;;;3.33;2.40;;;;;;;12.04;100.00;98072.03;5116107;28;20211;-78
2023/05/13 00:12:27;;;;;;;2.90;2.23;;;;;;;12.06;100.00;98065.44;5116895;28;20207;-78
2023/05/13 00:14:53;;;;;;;2.63;2.40;;;;;;;12.03;100.00;98076.53;5115485;28;20216;-78
2023/05/13 00:17:19;;;;;;;4.37;2.40;;;;;;;12.00;100.00;98079.69;5115081;28;20222;-78
2023/05/13 00:19:46;;;;;;;2.63;2.43;;;;;;;11.92;100.00;98068.50;5115204;28;20695;-78
2023/05/13 00:22:13;;;;;;;3.03;2.57;;;;;;;11.89;100.00;98066.31;5115557;28;20210;-78
2023/05/13 00:24:39;;;;;;;3.13;2.40;;;;;;;11.91;100.00;98069.56;5115882;28;20243;-78
2023/05/13 00:27:06;;;;;;;3.20;2.83;;;;;;;11.91;100.00;98070.38;5115693;28;20312;-78
2023/05/13 00:29:32;;;;;;;2.67;2.47;;;;;;;11.92;100.00;98072.00;5115909;28;20207;-78
2023/05/13 00:31:58;;;;;;;2.83;2.30;;;;;;;11.98;100.00;98073.75;5116052;28;20205;-78
2023/05/13 00:34:25;;;;;;;2.70;2.50;;;;;;;11.93;100.00;98068.28;5115718;28;20212;-78
2023/05/13 00:36:51;;;;;;;3.60;3.03;;;;;;;11.89;100.00;98068.97;5115523;28;20233;-78
2023/05/13 00:39:18;;;;;;;3.07;2.77;;;;;;;11.84;100.00;98068.84;5117114;28;20226;-78
2023/05/13 00:41:44;;;;;;;3.53;2.83;;;;;;;11.85;100.00;98068.59;5116772;28;20213;-78
2023/05/13 00:44:11;;;;;;;3.40;2.90;;;;;;;11.82;100.00;98066.41;5115626;28;20209;-78
2023/05/13 00:46:37;;;;;;;3.47;2.73;;;;;;;11.77;100.00;98070.78;5115885;28;20301;-78
2023/05/13 00:49:04;;;;;;;2.73;2.50;;;;;;;11.82;100.00;98082.38;5114772;28;20677;-78
2023/05/13 00:51:32;;;;;;;3.50;3.20;;;;;;;11.80;100.00;98068.47;5115499;28;20550;-78
2023/05/13 00:53:59;;;;;;;4.63;2.77;;;;;;;11.74;100.00;98077.38;5116398;28;20203;-78
2023/05/13 00:56:26;;;;;;;6.00;3.00;;;;;;;11.71;100.00;98071.69;5119058;28;20223;-78
2023/05/13 00:58:53;;;;;;;3.27;2.97;;;;;;;11.68;100.00;98080.94;5118931;28;20205;-78
2023/05/13 01:01:34;;;;;;;2.80;2.60;;;;;;;11.62;100.00;98073.84;5119082;28;20225;-78
2023/05/13 01:04:12;;;;;;;2.80;2.60;;;;;;;11.60;100.00;98072.44;5119104;28;20200;-78
2023/05/13 01:07:03;;;;;;;3.37;3.17;;;;;;;11.56;100.00;98076.53;5118990;28;20240;-78
2023/05/13 01:09:32;;;;;;;2.97;2.77;;;;;;;11.56;100.00;98071.22;5119288;28;20180;-78
2023/05/13 01:12:07;;;;;;;3.17;2.97;;;;;;;11.48;100.00;98067.03;5119406;28;20211;-78
2023/05/13 01:14:40;;;;;;;3.23;3.03;;;;;;;11.46;100.00;98069.13;5119092;28;20230;-78
2023/05/13 01:17:17;;;;;;;3.13;2.83;;;;;;;11.39;100.00;98070.22;5119071;28;20636;-78
2023/05/13 01:19:52;;;;;;;2.57;2.37;;;;;;;11.41;100.00;98076.13;5120323;28;20255;-78
2023/05/13 01:22:18;;;;;;;3.03;2.80;;;;;;;11.36;100.00;98074.16;5120442;28;20184;-79
2023/05/13 01:24:45;;;;;;;3.00;2.80;;;;;;;11.26;100.00;98071.19;5119770;28;20315;-78
2023/05/13 01:27:12;;;;;;;3.40;2.67;;;;;;;11.14;100.00;98075.63;5119330;28;20349;-78
2023/05/13 01:29:39;;;;;;;3.13;2.83;;;;;;;11.07;100.00;98082.88;5119222;28;20242;-78
2023/05/13 01:32:07;;;;;;;3.63;2.73;;;;;;;11.07;100.00;98080.19;5120146;28;20199;-78
2023/05/13 01:34:35;;;;;;;3.43;2.43;;;;;;;11.06;100.00;98081.25;5119211;28;20207;-79
2023/05/13 01:37:02;;;;;;;2.80;2.60;;;;;;;11.01;100.00;98073.91;5119659;28;20713;-78
2023/05/13 01:39:29;;;;;;;3.33;2.50;;;;;;;10.89;100.00;98083.69;5120385;28;20272;-78
2023/05/13 01:41:56;;;;;;;2.90;2.63;;;;;;;10.89;100.00;98090.81;5119660;28;20203;-78
2023/05/13 01:44:22;;;;;;;3.33;2.70;;;;;;;10.78;100.00;98079.06;5118439;28;20214;-78
2023/05/13 01:46:49;;;;;;;2.73;2.53;;;;;;;10.85;100.00;98079.00;5118054;28;20237;-78
2023/05/13 01:49:16;;;;;;;2.90;2.70;;;;;;;10.75;100.00;98081.34;5118263;28;20294;-78
2023/05/13 01:51:42;;;;;;;3.00;2.80;;;;;;;10.71;100.00;98088.97;5117808;28;20209;-78
2023/05/13 01:54:09;;;;;;;3.63;2.70;;;;;;;10.64;100.00;98088.19;5117962;28;20210;-78
2023/05/13 01:56:35;;;;;;;2.90;2.70;;;;;;;10.61;100.00;98086.00;5117623;28;20234;-78
2023/05/13 01:59:02;;;;;;;3.37;3.07;;;;;;;10.65;100.00;98083.72;5117462;28;20200;-78
2023/05/13 02:01:28;;;;;;;3.23;2.80;;;;;;;10.63;100.00;98089.22;5117171;28;20213;-78
2023/05/13 02:03:54;;;;;;;2.90;2.70;;;;;;;10.58;100.00;98085.59;5117056;28;20282;-78
2023/05/13 02:06:21;;;;;;;3.13;2.93;;;;;;;10.56;100.00;98082.34;5116413;28;20231;-78
2023/05/13 02:08:47;;;;;;;2.90;2.70;;;;;;;10.58;100.00;98080.28;5116751;28;20211;-77
2023/05/13 02:11:13;;;;;;;3.13;2.67;;;;;;;10.59;100.00;98079.28;5116977;28;20206;-78
2023/05/13 02:13:40;;;;;;;4.07;2.63;;;;;;;10.59;100.00;98089.91;5116729;28;20203;-78
2023/05/13 02:16:06;;;;;;;2.70;2.50;;;;;;;10.62;100.00;98089.44;5116934;28;20235;-78
2023/05/13 02:18:32;;;;;;;5.73;2.70;;;;;;;10.59;100.00;98084.59;5117414;28;20208;-78
2023/05/13 02:20:59;;;;;;;2.83;2.60;;;;;;;10.58;100.00;98090.91;5117019;28;20219;-78
2023/05/13 02:23:25;;;;;;;2.97;2.77;;;;;;;10.63;100.00;98089.22;5117063;28;20203;-78
2023/05/13 02:25:52;;;;;;;2.87;2.57;;;;;;;10.71;100.00;98093.44;5116921;28;20238;-78
2023/05/13 02:28:18;;;;;;;3.97;2.77;;;;;;;10.56;100.00;98095.66;5117100;28;20665;-78
2023/05/13 02:30:44;;;;;;;7.57;2.80;;;;;;;10.60;100.00;98086.22;5116801;28;20664;-78
2023/05/13 02:33:12;;;;;;;2.77;2.57;;;;;;;10.49;100.00;98089.56;5116895;28;20666;-78
2023/05/13 02:35:38;;;;;;;3.63;2.77;;;;;;;10.51;100.00;98084.84;5117216;28;20230;-78
2023/05/13 02:38:04;;;;;;;3.27;2.97;;;;;;;10.36;100.00;98093.16;5117393;28;20207;-78
2023/05/13 02:40:31;;;;;;;3.57;2.80;;;;;;;10.41;100.00;98092.50;5118368;28;20306;-78
2023/05/13 02:42:57;;;;;;;3.93;2.70;;;;;;;10.41;100.00;98092.50;5117565;28;20213;-78
2023/05/13 02:45:24;;;;;;;2.70;2.50;;;;;;;10.41;100.00;98097.81;5116516;28;20226;-78
2023/05/13 02:47:50;;;;;;;3.33;3.03;;;;;;;10.42;100.00;98094.94;5118030;28;20207;-78
2023/05/13 02:50:17;;;;;;;4.27;2.60;;;;;;;10.20;100.00;98098.19;5115890;28;20207;-76
2023/05/13 02:52:43;;;;;;;3.13;2.77;;;;;;;10.28;100.00;98095.25;5115440;28;20666;-77
2023/05/13 02:55:09;;;;;;;3.33;3.03;;;;;;;10.32;100.00;98093.81;5115360;28;20666;-77
2023/05/13 02:57:36;;;;;;;3.03;2.83;;;;;;;10.40;100.00;98096.16;5115839;28;20681;-78
2023/05/13 03:00:04;;;;;;;2.67;2.47;;;;;;;10.35;100.00;98096.00;5115727;28;20709;-78
2023/05/13 03:02:32;;;;;;;2.97;2.67;;;;;;;10.35;100.00;98090.69;5116509;28;20195;-78
2023/05/13 03:04:58;;;;;;;2.40;2.20;;;;;;;10.39;100.00;98097.22;5115633;28;20666;-78
2023/05/13 03:07:25;;;;;;;2.77;2.50;;;;;;;10.32;100.00;98089.28;5115411;28;20203;-77
2023/05/13 03:09:51;;;;;;;2.97;2.67;;;;;;;10.37;100.00;98091.31;5115688;28;20202;-78
2023/05/13 03:12:17;;;;;;;2.93;2.50;;;;;;;10.40;100.00;98090.84;5115450;28;20207;-78
2023/05/13 03:14:44;;;;;;;3.63;2.63;;;;;;;10.47;100.00;98094.28;5115506;28;20199;-78
2023/05/13 03:17:11;;;;;;;2.60;2.40;;;;;;;10.40;100.00;98096.16;5114738;28;20239;-78
2023/05/13 03:19:38;;;;;;;2.63;2.43;;;;;;;10.42;100.00;98094.13;5114869;28;20219;-78
2023/05/13 03:22:06;;;;;;;4.13;2.90;;;;;;;10.40;100.00;98094.34;5116493;28;20199;-78
2023/05/13 03:24:32;;;;;;;2.50;2.30;;;;;;;10.38;100.00;98098.25;5098569;28;20211;-78
2023/05/13 03:26:59;;;;;;;2.87;2.67;;;;;;;10.35;100.00;98098.66;5116769;28;20227;-78
2023/05/13 03:29:25;;;;;;;2.40;2.30;;;;;;;10.29;100.00;98100.38;5115518;28;20238;-78
2023/05/13 03:31:53;;;;;;;2.47;2.30;;;;;;;10.41;100.00;98097.81;5115531;28;20280;-78
2023/05/13 03:34:19;;;;;;;5.17;2.73;;;;;;;10.33;100.00;98098.88;5115747;28;20204;-78
2023/05/13 03:36:46;;;;;;;3.20;2.90;;;;;;;10.41;100.00;98101.28;5115350;28;20223;-78
2023/05/13 03:39:12;;;;;;;4.80;2.60;;;;;;;10.34;100.00;98092.56;5116527;28;20203;-78
2023/05/13 03:41:38;;;;;;;2.90;2.70;;;;;;;10.32;100.00;98104.44;5116875;28;20230;-78
2023/05/13 03:44:05;;;;;;;2.77;2.57;;;;;;;10.38;100.00;98099.06;5116278;28;20222;-78
2023/05/13 03:46:32;;;;;;;2.67;2.40;;;;;;;10.35;100.00;98109.28;5116574;28;20231;-78
2023/05/13 03:48:59;;;;;;;2.47;2.27;;;;;;;10.43;100.00;98111.69;5116032;28;20203;-78
2023/05/13 03:51:25;;;;;;;3.60;2.80;;;;;;;10.47;100.00;98110.25;5115913;28;20245;-78
2023/05/13 03:53:52;;;;;;;2.80;2.47;;;;;;;10.45;100.00;98115.75;5115424;28;20297;-78
2023/05/13 03:56:18;;;;;;;2.90;2.70;;;;;;;10.40;100.00;98112.13;5115292;28;20709;-78
2023/05/13 03:58:44;;;;;;;2.60;2.40;;;;;;;10.49;100.00;98116.13;5114911;28;20561;-78
2023/05/13 04:01:11;;;;;;;4.33;2.30;;;;;;;10.50;100.00;98113.25;5115385;28;20219;-78
2023/05/13 04:03:37;;;;;;;3.87;2.57;;;;;;;10.46;100.00;98109.41;5114935;28;20226;-78
2023/05/13 04:06:04;;;;;;;2.37;2.27;;;;;;;10.36;100.00;98119.72;5114805;28;20233;-78
2023/05/13 04:08:30;;;;;;;2.60;2.40;;;;;;;10.27;100.00;98117.56;5114741;28;20235;-77
2023/05/13 04:10:56;;;;;;;3.80;2.60;;;;;;;10.39;100.00;98113.16;5114530;28;20196;-78
2023/05/13 04:13:23;;;;;;;2.70;2.50;;;;;;;10.37;100.00;98117.88;5115048;28;20207;-78
2023/05/13 04:15:49;;;;;;;2.97;2.77;;;;;;;10.36;100.00;98122.38;5114579;28;20230;-78
2023/05/13 04:18:16;;;;;;;2.43;2.23;;;;;;;10.32;100.00;98121.19;5115243;28;20187;-78
2023/05/13 04:20:42;;;;;;;3.10;2.90;;;;;;;10.34;100.00;98124.44;5115646;28;20237;-78
2023/05/13 04:23:09;;;;;;;3.03;2.40;;;;;;;10.27;100.00;98125.53;5114576;28;20210;-78
2023/05/13 04:25:36;;;;;;;3.27;2.70;;;;;;;10.46;100.00;98121.91;5115316;28;20223;-78
2023/05/13 04:28:02;;;;;;;4.00;2.63;;;;;;;10.37;100.00;98129.31;5117538;28;20217;-78
2023/05/13 04:30:29;;;;;;;3.03;2.63;;;;;;;10.36;100.00;98132.22;5122533;28;20199;-78
2023/05/13 04:32:56;;;;;;;6.50;2.70;;;;;;;10.32;100.00;98137.13;5121314;28;20688;-77
2023/05/13 04:35:22;;;;;;;5.23;2.30;;;;;;;10.31;100.00;98134.66;5121096;28;20231;-77
2023/05/13 04:37:49;;;;;;;3.77;2.57;;;;;;;10.42;100.00;98134.78;5122264;28;20213;-77
2023/05/13 04:40:15;;;;;;;2.90;2.47;;;;;;;10.32;100.00;98141.63;5122042;28;20280;-78
2023/05/13 04:42:42;;;;;;;2.70;2.50;;;;;;;10.39;100.00;98142.38;5121578;28;20209;-77
2023/05/13 04:45:08;;;;;;;3.50;2.37;;;;;;;10.36;100.00;98137.53;5121686;28;20203;-77
2023/05/13 04:47:36;;;;;;;2.83;2.63;;;;;;;10.33;100.00;98137.94;5120953;28;20536;-77
2023/05/13 04:50:03;;;;;;;2.93;2.73;;;;;;;10.39;100.00;98142.38;5120940;28;20617;-77
2023/05/13 04:52:29;;;;;;;2.83;2.40;;;;;;;10.35;100.00;98146.50;5120665;28;20210;-77
2023/05/13 04:54:56;;;;;;;4.47;3.07;;;;;;;10.42;100.00;98155.25;5121320;28;20611;-78
2023/05/13 04:57:22;;;;;;;3.67;2.80;;;;;;;10.25;100.00;98156.78;5120393;28;20674;-77
2023/05/13 04:59:48;;;;;;;2.70;2.50;;;;;;;10.31;100.00;98156.75;5120810;28;20207;-77
2023/05/13 05:02:15;;;;;;;4.40;2.60;;;;;;;10.32;100.00;98161.03;5121147;28;20211;-78
2023/05/13 05:04:41;;;;;;;2.90;2.57;;;;;;;10.33;100.00;98153.88;5121418;28;20572;-77
2023/05/13 05:07:07;;;;;;;2.80;2.60;;;;;;;10.23;100.00;98157.00;5121055;28;20583;-77
2023/05/13 05:09:34;;;;;;;3.67;2.60;;;;;;;10.26;100.00;98158.41;5120412;28;20276;-77
2023/05/13 05:12:00;;;;;;;3.23;2.80;;;;;;;10.34;100.00;98160.81;5120326;28;20654;-77
2023/05/13 05:14:27;;;;;;;4.10;2.70;;;;;;;10.28;100.00;98156.38;5120094;28;20213;-78
2023/05/13 05:16:53;;;;;;;2.90;2.60;;;;;;;10.37;100.00;98161.19;5120641;28;20709;-77
2023/05/13 05:19:22;;;;;;;4.33;3.13;;;;;;;10.46;100.00;98167.09;5120870;28;20218;-77
2023/05/13 05:21:52;;;;;;;3.40;3.10;;;;;;;10.52;100.00;98167.03;5121256;28;20305;-78
2023/05/13 05:24:19;;;;;;;2.83;2.43;;;;;;;10.50;100.00;98166.44;5121453;28;20199;-78
2023/05/13 05:26:45;;;;;;;2.87;2.67;;;;;;;10.49;100.00;98163.97;5121872;28;20313;-78
2023/05/13 05:29:11;;;;;;;3.00;2.80;;;;;;;10.53;100.00;98162.53;5121844;28;20214;-78
2023/05/13 05:31:38;;;;;;;3.20;2.87;;;;;;;10.55;100.00;98163.13;5122057;28;20203;-78
2023/05/13 05:34:04;;;;;;;3.83;2.97;;;;;;;10.60;100.00;98177.38;5122162;28;20290;-78
2023/05/13 05:36:31;;;;;;;3.03;2.73;;;;;;;10.67;100.00;98169.38;5121665;28;20231;-78
2023/05/13 05:38:57;;;;;;;2.70;2.50;;;;;;;10.69;100.00;98183.28;5122925;28;20209;-78
2023/05/13 05:41:24;;;;;;;3.50;2.90;;;;;;;10.57;100.00;98182.34;5118613;28;20218;-78
2023/05/13 05:43:50;;;;;;;3.10;2.70;;;;;;;10.62;100.00;98178.00;5118407;28;20217;-78
2023/05/13 05:46:16;;;;;;;3.07;2.87;;;;;;;10.56;100.00;98180.72;5118486;28;20223;-78
2023/05/13 05:48:43;;;;;;;3.63;2.70;;;;;;;10.55;100.00;98182.53;5118764;28;20227;-78
2023/05/13 05:51:09;;;;;;;3.87;2.60;;;;;;;10.54;100.00;98180.91;5118027;28;20217;-78
2023/05/13 05:53:36;;;;;;;2.70;2.50;;;;;;;10.72;100.00;98193.47;5117932;28;20207;-78
2023/05/13 05:56:03;;;;;;;3.40;2.80;;;;;;;10.63;100.00;98192.09;5118403;28;20235;-78
2023/05/13 05:58:30;;;;;;;3.20;3.00;;;;;;;10.62;100.00;98199.28;5119097;28;20211;-78
2023/05/13 06:00:57;;;;;;;4.17;2.87;;;;;;;10.55;100.00;98189.72;5118394;28;20223;-78
2023/05/13 06:03:23;;;;;;;3.23;3.03;;;;;;;10.62;100.00;98196.63;5118455;28;20210;-78
2023/05/13 06:05:50;;;;;;;3.83;2.80;;;;;;;10.55;100.00;98195.03;5116737;28;20230;-78
2023/05/13 06:08:16;;;;;;;3.57;2.80;;;;;;;10.58;100.00;98194.59;5097458;28;20203;-78
2023/05/13 06:10:44;;;;;;;3.33;3.10;;;;;;;10.58;100.00;98197.25;5097296;28;20219;-78
2023/05/13 06:13:11;;;;;;;4.10;2.87;;;;;;;10.56;100.00;98197.50;5096783;28;20214;-78
2023/05/13 06:15:40;;;;;;;6.40;3.10;;;;;;;10.60;100.00;98198.66;5097826;28;20246;-78
2023/05/13 06:18:07;;;;;;;3.17;2.87;;;;;;;10.66;100.00;98202.31;5097263;28;20192;-78
2023/05/13 06:20:33;;;;;;;5.37;3.30;;;;;;;10.62;100.00;98201.09;5097011;28;20231;-78
2023/05/13 06:22:59;;;;;;;3.47;3.17;;;;;;;10.74;100.00;98202.06;5096911;28;20496;-78
2023/05/13 06:25:26;;;;;;;3.33;3.03;;;;;;;10.74;100.00;98202.06;5097733;28;20223;-78
2023/05/13 06:27:52;;;;;;;4.53;3.10;;;;;;;10.63;100.00;98202.72;5097203;28;20204;-78
2023/05/13 06:30:19;;;;;;;4.53;2.90;;;;;;;10.63;100.00;98197.41;5097581;28;20215;-78
2023/05/13 06:32:45;;;;;;;4.10;3.20;;;;;;;10.71;100.00;98199.81;5096995;28;20204;-78
2023/05/13 06:35:11;;;;;;;3.73;3.43;;;;;;;10.74;100.00;98204.72;5097058;28;20204;-78
2023/05/13 06:37:38;;;;;;;3.80;3.37;;;;;;;10.74;100.00;98208.19;5097615;28;20204;-78
2023/05/13 06:40:05;;;;;;;5.13;3.43;;;;;;;10.74;100.00;98207.38;5097563;28;20215;-78
2023/05/13 06:42:31;;;;;;;3.90;3.60;;;;;;;10.80;100.00;98207.31;5097346;28;20224;-78
2023/05/13 06:44:57;;;;;;;4.07;2.83;;;;;;;10.90;100.00;98214.78;5097724;28;20211;-78
2023/05/13 06:47:24;;;;;;;3.63;3.27;;;;;;;10.91;100.00;98208.47;5097645;28;20214;-78
2023/05/13 06:49:50;;;;;;;3.13;2.90;;;;;;;10.96;100.00;98208.63;5097914;28;20214;-78
2023/05/13 06:52:16;;;;;;;3.57;3.17;;;;;;;10.85;100.00;98207.47;5096382;28;20202;-78
2023/05/13 06:54:43;;;;;;;3.20;2.90;;;;;;;10.88;100.00;98208.91;5097948;28;20210;-78
2023/05/13 06:57:09;;;;;;;5.67;3.33;;;;;;;10.93;100.00;98197.63;5097707;28;20224;-79
2023/05/13 06:59:36;;;;;;;7.90;3.30;;;;;;;11.09;100.00;98203.19;5097642;28;20201;-78
2023/05/13 07:02:02;;;;;;;3.30;3.00;;;;;;;11.27;100.00;98205.06;5098005;28;20225;-78
2023/05/13 07:04:29;;;;;;;3.67;3.07;;;;;;;11.17;100.00;98210.88;5097200;28;20208;-78
2023/05/13 07:06:56;;;;;;;3.83;3.43;;;;;;;11.25;100.00;98210.59;5097441;28;20235;-78
2023/05/13 07:09:23;;;;;;;4.30;3.07;;;;;;;11.34;100.00;98219.94;5097031;28;20202;-78
2023/05/13 07:11:49;;;;;;;3.03;2.80;;;;;;;11.31;100.00;98219.56;5097467;28;20284;-78
2023/05/13 07:14:15;;;;;;;4.40;3.37;;;;;;;11.21;100.00;98216.59;5097597;28;20295;-78
2023/05/13 07:16:43;;;;;;;3.73;3.00;;;;;;;11.32;100.00;98207.88;5095410;28;20228;-78
2023/05/13 07:19:11;;;;;;;5.37;3.17;;;;;;;11.27;100.00;98216.53;5095553;28;20211;-78
2023/05/13 07:21:38;;;;;;;3.77;3.10;;;;;;;11.43;100.00;98218.63;5097028;28;20226;-78
2023/05/13 07:24:05;;;;;;;4.53;3.10;;;;;;;11.45;100.00;98221.91;5097572;28;20550;-78
2023/05/13 07:26:31;;;;;;;4.20;3.03;;;;;;;11.57;100.00;98214.00;5096952;28;20227;-78
2023/05/13 07:28:58;;;;;;;3.57;3.27;;;;;;;11.36;100.00;98215.22;5096603;28;20204;-78
2023/05/13 07:31:25;;;;;;;5.13;3.10;;;;;;;11.56;100.00;98221.16;5096596;28;20231;-78
2023/05/13 07:33:51;;;;;;;3.83;3.20;;;;;;;11.55;100.00;98221.38;5097265;28;20257;-78
2023/05/13 07:36:18;;;;;;;3.60;3.30;;;;;;;11.60;100.00;98222.38;5097125;28;20224;-78
2023/05/13 07:38:44;;;;;;;3.63;3.33;;;;;;;11.55;100.00;98219.53;5096466;28;20578;-78
2023/05/13 07:41:10;;;;;;;3.70;3.40;;;;;;;11.53;100.00;98213.59;5096576;28;20721;-78
2023/05/13 07:43:39;;;;;;;3.23;2.93;;;;;;;11.51;100.00;98217.50;5097174;28;20209;-78
2023/05/13 07:46:05;;;;;;;3.97;3.47;;;;;;;11.52;100.00;98216.50;5097184;28;20298;-78
2023/05/13 07:48:32;;;;;;;3.40;3.10;;;;;;;11.56;100.00;98212.34;5097295;28;20214;-78
2023/05/13 07:50:58;;;;;;;3.63;3.10;;;;;;;11.63;100.00;98210.47;5097711;28;20202;-78
2023/05/13 07:53:25;;;;;;;4.90;3.47;;;;;;;11.71;100.00;98228.81;5096768;28;20208;-78
2023/05/13 07:55:51;;;;;;;3.30;3.00;;;;;;;11.76;100.00;98219.09;5096456;28;20220;-78
2023/05/13 07:58:19;;;;;;;3.67;3.10;;;;;;;11.71;100.00;98226.94;5096383;28;20211;-78
2023/05/13 08:00:45;;;;;;;4.23;3.43;;;;;;;11.74;100.00;98220.38;5096508;28;20203;-78
2023/05/13 08:03:12;;;;;;;4.60;3.27;;;;;;;11.65;100.00;98230.50;5095985;28;20570;-78
2023/05/13 08:05:38;;;;;;;5.40;3.17;;;;;;;11.70;100.00;98228.00;5095973;28;20254;-78
2023/05/13 08:08:05;;;;;;;3.63;3.37;;;;;;;11.70;100.00;98228.00;5097467;28;20668;-78
2023/05/13 08:10:31;;;;;;;3.17;2.93;;;;;;;11.69;100.00;98230.88;5096009;28;20580;-74
2023/05/13 08:12:59;;;;;;;3.30;3.00;;;;;;;11.68;100.00;98230.06;5094317;28;20204;-74
2023/05/13 08:15:27;;;;;;;4.17;3.30;;;;;;;11.60;100.00;98225.03;5094111;28;20219;-74
2023/05/13 08:17:53;;;;;;;3.87;2.77;;;;;;;11.65;100.00;98229.69;5093402;28;20793;-74
2023/05/13 08:20:21;;;;;;;3.60;3.13;;;;;;;11.65;100.00;98235.84;5093670;28;20206;-74
2023/05/13 08:22:48;;;;;;;3.77;3.33;;;;;;;11.58;100.00;98231.59;5093496;28;20220;-74
2023/05/13 08:25:15;;;;;;;3.63;3.33;;;;;;;11.64;100.00;98236.06;5093283;28;20250;-74
2023/05/13 08:27:41;;;;;;;3.80;3.50;;;;;;;11.61;100.00;98233.84;5093275;28;20207;-74
2023/05/13 08:30:08;;;;;;;3.53;3.17;;;;;;;11.71;100.00;98234.16;5093450;28;20291;-74
2023/05/13 08:32:34;;;;;;;3.73;3.00;;;;;;;11.82;100.00;98238.72;5093232;28;20665;-74
2023/05/13 08:35:01;;;;;;;3.63;3.33;;;;;;;11.81;100.00;98237.09;5093065;28;20573;-74
2023/05/13 08:37:27;;;;;;;3.60;3.23;;;;;;;12.10;100.00;98236.34;5093585;28;20210;-74
2023/05/13 08:39:54;;;;;;;4.00;3.60;;;;;;;11.90;100.00;98249.91;5093533;28;20206;-74
2023/05/13 08:42:22;;;;;;;5.80;3.20;;;;;;;11.95;100.00;98243.91;5093542;28;20234;-74
2023/05/13 08:44:50;;;;;;;5.53;3.77;;;;;;;11.97;100.00;98247.97;5093784;28;20225;-74
2023/05/13 08:47:26;;;;;;;3.83;3.40;;;;;;;11.90;100.00;98241.09;5093859;28;20228;-74
2023/05/13 08:49:53;;;;;;;4.13;3.70;;;;;;;11.78;100.00;98246.34;5093966;28;20619;-74
2023/05/13 08:52:21;;;;;;;4.40;4.00;;;;;;;11.77;100.00;98247.41;5093477;28;20287;-75
2023/05/13 08:54:48;;;;;;;5.47;3.57;;;;;;;11.82;100.00;98255.53;5093298;28;20675;-74
2023/05/13 08:57:14;;;;;;;4.27;3.90;;;;;;;11.83;100.00;98254.50;5093405;28;20228;-74
2023/05/13 08:59:41;;;;;;;3.87;3.53;;;;;;;11.97;100.00;98250.63;5094015;28;20569;-74
2023/05/13 09:02:09;;;;;;;3.87;3.23;;;;;;;11.91;100.00;98246.22;5093663;28;20240;-74
2023/05/13 09:04:40;;;;;;;3.73;3.43;;;;;;;11.93;100.00;98254.78;5093125;28;20210;-74
2023/05/13 09:07:06;;;;;;;4.53;3.00;;;;;;;11.85;100.00;98249.75;5094027;28;20224;-74
2023/05/13 09:09:33;;;;;;;3.80;3.50;;;;;;;11.95;100.00;98258.06;5092414;28;20212;-74
2023/05/13 09:11:59;;;;;;;4.53;3.43;;;;;;;12.13;100.00;98252.72;5092587;28;20223;-74
2023/05/13 09:14:32;;;;;;;5.13;3.10;;;;;;;12.07;100.00;98256.25;5092398;28;20205;-74
2023/05/13 09:17:00;;;;;;;4.63;3.30;;;;;;;12.11;100.00;98253.97;5095228;28;20262;-74
2023/05/13 09:19:27;;;;;;;3.33;3.13;;;;;;;12.08;100.00;98246.41;5095713;28;20708;-74
2023/05/13 09:21:53;;;;;;;4.67;3.10;;;;;;;12.20;100.00;98253.44;5096367;28;20235;-74
2023/05/13 09:24:20;;;;;;;2.70;2.50;;;;;;;12.40;100.00;98251.34;5096552;28;20207;-74
2023/05/13 09:26:51;;;;;;;3.00;2.80;;;;;;;12.54;100.00;98242.13;5096729;28;20715;-74
2023/05/13 09:29:21;;;;;;;3.47;3.13;;;;;;;12.59;100.00;98244.91;5096463;28;20204;-74
2023/05/13 09:31:51;;;;;;;3.03;2.83;;;;;;;12.54;100.00;98242.13;5096532;28;20236;-74
2023/05/13 09:34:47;;;;;;;3.70;3.27;;;;;;;12.82;100.00;98244.16;5096950;28;20251;-74
2023/05/13 09:37:18;;;;;;;3.13;2.93;;;;;;;12.88;100.00;98241.38;5094974;28;20232;-74
2023/05/13 09:39:45;;;;;;;2.93;2.70;;;;;;;12.86;100.00;98242.66;5096464;28;20191;-74
2023/05/13 09:42:18;;;;;;;3.87;3.20;;;;;;;13.08;100.00;98243.78;5096461;28;20226;-74
2023/05/13 09:44:47;;;;;;;3.13;2.93;;;;;;;13.06;100.00;98241.34;5096781;28;20554;-74
2023/05/13 09:47:15;;;;;;;4.93;3.60;;;;;;;13.09;100.00;98243.56;5096759;28;20223;-74
2023/05/13 09:49:42;;;;;;;4.93;3.07;;;;;;;13.31;100.00;98254.47;5096483;28;20207;-74
2023/05/13 09:52:10;;;;;;;4.30;3.20;;;;;;;13.16;100.00;98252.25;5096052;28;20237;-74
2023/05/13 09:54:37;;;;;;;3.33;3.13;;;;;;;12.96;100.00;98251.75;5096109;28;20208;-74
2023/05/13 09:57:04;;;;;;;4.40;3.30;;;;;;;13.07;100.00;98247.50;5095866;28;20223;-74
2023/05/13 09:59:34;;;;;;;3.23;3.03;;;;;;;12.91;100.00;98248.94;5095801;28;20204;-74
2023/05/13 10:02:04;;;;;;;3.37;2.90;;;;;;;13.20;100.00;98253.44;5095980;28;20230;-74
2023/05/13 10:04:31;;;;;;;3.93;3.00;;;;;;;13.15;100.00;98257.84;5095930;28;20211;-74
2023/05/13 10:07:03;;;;;;;4.37;3.23;;;;;;;13.11;100.00;98260.16;5095760;28;20228;-73
2023/05/13 10:09:37;;;;;;;3.63;2.97;;;;;;;13.15;100.00;98255.97;5096426;28;20195;-73
2023/05/13 10:12:07;;;;;;;4.00;3.03;;;;;;;13.22;100.00;98262.03;5096103;28;20652;-74
2023/05/13 10:14:36;;;;;;;3.33;3.03;;;;;;;13.06;100.00;98260.03;5096670;28;20196;-74
2023/05/13 10:17:04;;;;;;;3.30;3.00;;;;;;;13.00;100.00;98258.28;5096089;28;20280;-74
2023/05/13 10:19:30;;;;;;;2.80;2.60;;;;;;;13.12;100.00;98259.09;5096527;28;20590;-74
2023/05/13 10:21:58;;;;;;;3.27;2.97;;;;;;;13.41;100.00;98254.72;5095571;28;20226;-74
2023/05/13 10:24:25;;;;;;;3.17;2.83;;;;;;;13.22;100.00;98256.69;5095488;28;20207;-74
2023/05/13 10:26:52;;;;;;;3.13;2.80;;;;;;;13.34;100.00;98257.50;5094976;28;20266;-74
2023/05/13 10:29:19;;;;;;;3.07;2.40;;;;;;;13.40;100.00;98261.94;5094936;28;20203;-74
2023/05/13 10:31:47;;;;;;;3.40;3.10;;;;;;;13.52;100.00;98261.94;5095551;28;20208;-74
2023/05/13 10:34:14;;;;;;;3.60;3.30;;;;;;;13.45;100.00;98262.06;5095730;28;20208;-74
2023/05/13 10:36:53;;;;;;;4.57;3.63;;;;;;;13.20;100.00;98255.31;5094929;28;20714;-74
2023/05/13 10:40:04;;;;;;;4.07;3.63;;;;;;;13.23;100.00;98260.16;5097794;28;20197;-79
2023/05/13 10:42:40;;;;;;;4.00;3.60;;;;;;;13.32;100.00;98256.09;5063986;28;20226;-78
2023/05/13 10:45:07;;;;;;;4.87;3.53;;;;;;;13.33;100.00;98261.22;5097295;28;20260;-78
2023/05/13 10:47:34;;;;;;;5.50;3.80;;;;;;;13.48;100.00;98260.78;5097748;28;20211;-78
2023/05/13 10:50:06;;;;;;;4.60;4.00;;;;;;;13.42;100.00;98257.16;5096546;28;20204;-78
2023/05/13 10:52:46;;;;;;;3.63;3.40;;;;;;;13.42;100.00;98253.66;5096647;28;20209;-78
2023/05/13 10:55:18;;;;;;;4.57;3.73;;;;;;;13.44;100.00;98263.09;5096382;28;20278;-78
2023/05/13 10:58:15;;;;;;;3.53;3.23;;;;;;;13.36;100.00;98266.09;5097041;28;20219;-78
2023/05/13 11:00:43;;;;;;;3.60;3.30;;;;;;;13.43;100.00;98255.31;5094955;28;20206;-78
2023/05/13 11:03:28;;;;;;;3.10;2.80;;;;;;;13.44;100.00;98263.09;5096308;28;20226;-78
2023/05/13 11:06:14;;;;;;;4.20;3.50;;;;;;;13.51;100.00;98258.44;5097049;28;20230;-78
2023/05/13 11:08:43;;;;;;;4.60;4.17;;;;;;;13.33;100.00;98268.41;5097207;28;20282;-78
2023/05/13 11:11:22;;;;;;;4.20;3.80;;;;;;;13.23;100.00;98258.31;5096555;28;20210;-78
2023/05/13 11:13:56;;;;;;;4.40;3.43;;;;;;;13.43;100.00;98266.00;5096839;28;20229;-78
2023/05/13 11:16:23;;;;;;;3.47;3.27;;;;;;;13.45;100.00;98253.22;5096087;28;20308;-79
2023/05/13 11:18:51;;;;;;;4.23;3.47;;;;;;;13.49;100.00;98257.88;5097221;28;20214;-78
2023/05/13 11:21:18;;;;;;;3.83;3.33;;;;;;;13.57;100.00;98252.16;5096435;28;20204;-78
2023/05/13 11:23:52;;;;;;;3.97;3.67;;;;;;;13.79;100.00;98255.88;5097063;28;20695;-78
2023/05/13 11:26:20;;;;;;;3.10;2.90;;;;;;;13.96;100.00;98248.75;5096662;28;20220;-78